createdAt,value
2018-12-05T00:01:11.863Z,4.08
2018-12-05T00:03:40.843Z,2.58
2018-12-05T00:06:11.201Z,3.87
2018-12-05T00:08:40.250Z,3.75
2018-12-05T00:11:09.324Z,3.58
2018-12-05T00:13:38.370Z,3.50
2018-12-05T00:16:07.416Z,3.37
2018-12-05T00:18:36.331Z,3.60
2018-12-05T00:21:05.643Z,3.92
2018-12-05T00:23:34.680Z,2.92
2018-12-05T00:26:04.125Z,4.90
2018-12-05T00:28:33.056Z,3.70
2018-12-05T00:31:02.100Z,3.70
2018-12-05T00:33:31.082Z,3.80
2018-12-05T00:36:00.051Z,3.08
2018-12-05T00:38:29.166Z,4.30
2018-12-05T00:40:58.305Z,4.00
2018-12-05T00:43:27.286Z,3.33
2018-12-05T00:45:56.248Z,3.55
2018-12-05T00:48:25.244Z,3.92
2018-12-05T00:50:54.303Z,3.00
2018-12-05T00:53:23.285Z,4.15
2018-12-05T00:55:52.216Z,3.08
2018-12-05T00:58:21.181Z,3.08
2018-12-05T01:00:50.146Z,2.85
2018-12-05T01:03:19.083Z,5.10
2018-12-05T01:05:47.987Z,5.00
2018-12-05T01:08:17.040Z,4.17
2018-12-05T01:10:45.965Z,3.50
2018-12-05T01:13:14.944Z,4.10
2018-12-05T01:15:44.018Z,3.80
2018-12-05T01:18:13.016Z,3.10
2018-12-05T01:20:42.027Z,2.77
2018-12-05T01:23:11.169Z,3.00
2018-12-05T01:25:40.114Z,5.33
2018-12-05T01:28:09.078Z,4.35
2018-12-05T01:30:38.050Z,5.83
2018-12-05T01:33:06.999Z,4.90
2018-12-05T01:35:35.910Z,4.20
2018-12-05T01:38:04.935Z,4.12
2018-12-05T01:40:33.862Z,4.17
2018-12-05T01:43:02.784Z,4.58
2018-12-05T01:45:31.777Z,4.87
2018-12-05T01:48:00.784Z,3.65
2018-12-05T01:50:29.797Z,3.15
2018-12-05T01:52:58.838Z,3.70
2018-12-05T01:55:30.071Z,4.60
2018-12-05T01:57:59.068Z,5.00
2018-12-05T02:00:28.113Z,6.45
2018-12-05T02:02:57.057Z,5.08
2018-12-05T02:05:26.035Z,5.45
2018-12-05T02:07:54.957Z,5.95
2018-12-05T02:10:23.902Z,6.15
2018-12-05T02:12:52.883Z,6.12
2018-12-05T02:15:21.827Z,4.60
2018-12-05T02:17:50.756Z,4.00
2018-12-05T02:20:19.760Z,4.75
2018-12-05T02:22:48.896Z,4.85
2018-12-05T02:25:17.912Z,4.72
2018-12-05T02:27:46.887Z,3.60
2018-12-05T02:30:15.789Z,4.05
2018-12-05T02:32:44.726Z,5.12
2018-12-05T02:35:13.703Z,2.67
2018-12-05T02:37:42.639Z,2.72
2018-12-05T02:40:12.127Z,5.28
2018-12-05T02:42:41.132Z,4.37
2018-12-05T02:45:10.114Z,5.58
2018-12-05T02:47:39.082Z,5.17
2018-12-05T02:50:08.630Z,6.33
2018-12-05T02:52:37.566Z,5.60
2018-12-05T02:55:06.643Z,7.33
2018-12-05T02:57:35.591Z,6.70
2018-12-05T03:00:06.848Z,6.97
2018-12-05T03:02:35.781Z,6.35
2018-12-05T03:05:05.738Z,5.20
2018-12-05T03:07:34.750Z,4.97
2018-12-05T03:10:04.038Z,5.22
2018-12-05T03:12:33.038Z,4.65
2018-12-05T03:15:01.941Z,5.15
2018-12-05T03:17:30.921Z,5.15
2018-12-05T03:19:59.814Z,4.67
2018-12-05T03:22:28.719Z,4.62
2018-12-05T03:24:57.688Z,4.35
2018-12-05T03:27:26.579Z,6.58
2018-12-05T03:29:55.509Z,6.95
2018-12-05T03:32:24.463Z,4.83
2018-12-05T03:34:53.441Z,5.62
2018-12-05T03:37:22.447Z,4.95
2018-12-05T03:39:51.381Z,5.45
2018-12-05T03:42:20.413Z,4.60
2018-12-05T03:44:49.305Z,5.67
2018-12-05T03:47:18.281Z,6.08
2018-12-05T03:49:51.332Z,5.22
2018-12-05T03:52:20.295Z,6.92
2018-12-05T03:54:49.187Z,6.15
2018-12-05T03:57:18.119Z,7.17
2018-12-05T03:59:47.847Z,7.12
2018-12-05T04:02:16.746Z,6.37
2018-12-05T04:04:45.622Z,7.12
2018-12-05T04:07:14.554Z,8.10
2018-12-05T04:09:45.081Z,6.50
2018-12-05T04:12:14.242Z,7.00
2018-12-05T04:14:43.183Z,8.90
2018-12-05T04:17:12.087Z,8.35
2018-12-05T04:19:41.159Z,10.13
2018-12-05T04:22:10.118Z,10.15
2018-12-05T04:24:39.101Z,8.25
2018-12-05T04:27:08.092Z,8.28
2018-12-05T04:29:36.982Z,8.38
2018-12-05T04:32:05.932Z,6.65
2018-12-05T04:34:34.846Z,7.40
2018-12-05T04:37:03.747Z,6.85
2018-12-05T04:39:32.654Z,5.60
2018-12-05T04:42:01.581Z,7.47
2018-12-05T04:44:30.467Z,6.83
2018-12-05T04:46:59.448Z,6.30
2018-12-05T04:49:28.428Z,7.55
2018-12-05T04:51:57.438Z,7.33
2018-12-05T04:54:26.389Z,9.30
2018-12-05T04:56:55.345Z,8.85
2018-12-05T04:59:24.288Z,7.75
2018-12-05T05:01:53.298Z,8.08
2018-12-05T05:04:22.319Z,8.93
2018-12-05T05:06:51.345Z,9.53
2018-12-05T05:09:20.261Z,7.85
2018-12-05T05:11:49.289Z,7.95
2018-12-05T05:14:18.246Z,8.30
2018-12-05T05:16:47.169Z,7.70
2018-12-05T05:19:16.120Z,7.80
2018-12-05T05:21:45.020Z,8.55
2018-12-05T05:24:13.958Z,8.95
2018-12-05T05:26:42.919Z,9.45
2018-12-05T05:29:11.849Z,9.63
2018-12-05T05:31:40.750Z,8.65
2018-12-05T05:34:09.718Z,10.85
2018-12-05T05:36:38.688Z,8.63
2018-12-05T05:39:08.443Z,8.18
2018-12-05T05:41:37.401Z,8.40
2018-12-05T05:44:06.378Z,8.65
2018-12-05T05:46:35.323Z,7.72
2018-12-05T05:49:04.362Z,8.55
2018-12-05T05:51:33.269Z,7.92
2018-12-05T05:54:02.266Z,9.13
2018-12-05T05:56:31.287Z,7.47
2018-12-05T05:59:00.269Z,8.18
2018-12-05T06:01:29.311Z,8.70
2018-12-05T06:03:58.311Z,8.53
2018-12-05T06:06:27.279Z,9.08
2018-12-05T06:08:56.199Z,9.18
2018-12-05T06:11:25.213Z,10.03
2018-12-05T06:13:54.129Z,10.72
2018-12-05T06:16:23.070Z,10.63
2018-12-05T06:18:52.042Z,8.30
2018-12-05T06:21:20.928Z,9.63
2018-12-05T06:23:49.835Z,10.00
2018-12-05T06:26:18.825Z,7.62
2018-12-05T06:28:47.762Z,11.43
2018-12-05T06:31:16.674Z,10.35
2018-12-05T06:33:45.618Z,11.25
2018-12-05T06:36:15.383Z,13.05
2018-12-05T06:38:44.272Z,11.12
2018-12-05T06:41:13.197Z,9.95
2018-12-05T06:43:42.154Z,12.58
2018-12-05T06:46:11.143Z,11.00
2018-12-05T06:48:40.109Z,13.75
2018-12-05T06:51:09.531Z,13.20
2018-12-05T06:53:38.460Z,12.20
2018-12-05T06:56:07.634Z,12.37
2018-12-05T06:58:36.523Z,14.63
2018-12-05T07:01:05.470Z,12.93
2018-12-05T07:03:34.738Z,12.88
2018-12-05T07:06:03.692Z,14.78
2018-12-05T07:08:32.617Z,15.13
2018-12-05T07:11:01.724Z,13.48
2018-12-05T07:13:30.671Z,15.72
2018-12-05T07:15:59.584Z,13.93
2018-12-05T07:18:28.585Z,12.93
2018-12-05T07:20:57.538Z,13.48
2018-12-05T07:23:26.614Z,11.18
2018-12-05T07:25:55.754Z,13.45
2018-12-05T07:28:24.682Z,14.20
2018-12-05T07:30:55.093Z,14.28
2018-12-05T07:33:24.202Z,14.40
2018-12-05T07:35:53.135Z,14.30
2018-12-05T07:38:22.104Z,12.80
2018-12-05T07:40:51.562Z,14.10
2018-12-05T07:43:20.488Z,10.95
2018-12-05T07:45:50.071Z,11.90
2018-12-05T07:48:20.010Z,11.28
2018-12-05T07:50:51.921Z,10.95
2018-12-05T07:53:20.867Z,9.18
2018-12-05T07:55:49.826Z,8.95
2018-12-05T07:58:18.890Z,11.03
2018-12-05T08:00:48.065Z,9.93
2018-12-05T08:03:17.082Z,10.58
2018-12-05T08:05:47.649Z,10.03
2018-12-05T08:08:16.697Z,9.93
2018-12-05T08:10:45.668Z,8.65
2018-12-05T08:13:14.656Z,9.40
2018-12-05T08:15:43.647Z,8.25
2018-12-05T08:18:12.652Z,8.20
2018-12-05T08:20:41.721Z,8.00
2018-12-05T08:23:10.710Z,7.90
2018-12-05T08:25:41.033Z,8.53
2018-12-05T08:28:10.345Z,8.73
2018-12-05T08:30:39.603Z,7.25
2018-12-05T08:33:08.803Z,8.25
2018-12-05T08:35:37.823Z,8.15
2018-12-05T08:38:06.934Z,6.55
2018-12-05T08:40:35.954Z,7.95
2018-12-05T08:43:04.932Z,11.70
2018-12-05T08:45:33.987Z,8.35
2018-12-05T08:48:02.935Z,6.62
2018-12-05T08:50:31.904Z,7.03
2018-12-05T08:53:00.986Z,7.90
2018-12-05T08:55:29.920Z,7.25
2018-12-05T08:57:58.891Z,5.95
2018-12-05T09:00:27.875Z,8.30
2018-12-05T09:02:56.903Z,7.53
2018-12-05T09:05:25.861Z,8.73
2018-12-05T09:07:54.842Z,7.10
2018-12-05T09:10:23.752Z,6.65
2018-12-05T09:12:52.749Z,10.35
2018-12-05T09:15:22.745Z,7.80
2018-12-05T09:17:52.311Z,6.20
2018-12-05T09:20:21.315Z,6.28
2018-12-05T09:22:50.334Z,6.50
2018-12-05T09:25:19.331Z,6.42
2018-12-05T09:27:55.256Z,6.65
2018-12-05T09:30:24.653Z,8.03
2018-12-05T09:32:54.191Z,6.30
2018-12-05T09:35:24.181Z,7.97
2018-12-05T09:37:54.041Z,7.25
2018-12-05T09:40:23.065Z,7.58
2018-12-05T09:42:52.604Z,7.17
2018-12-05T09:45:21.749Z,6.58
2018-12-05T09:47:50.849Z,6.78
2018-12-05T09:50:20.077Z,7.10
2018-12-05T09:52:49.103Z,8.63
2018-12-05T09:55:18.383Z,7.30
2018-12-05T09:57:47.625Z,7.53
2018-12-05T10:00:16.722Z,6.62
2018-12-05T10:02:46.244Z,8.98
2018-12-05T10:05:15.440Z,8.65
2018-12-05T10:07:44.459Z,6.70
2018-12-05T10:10:13.425Z,8.38
2018-12-05T10:12:43.325Z,8.30
2018-12-05T10:15:12.358Z,8.50
2018-12-05T10:17:42.827Z,9.55
2018-12-05T10:20:12.029Z,6.95
2018-12-05T10:22:41.268Z,6.12
2018-12-05T10:25:10.332Z,7.17
2018-12-05T10:27:39.365Z,6.90
2018-12-05T10:30:10.042Z,6.30
2018-12-05T10:32:39.090Z,6.08
2018-12-05T10:35:08.132Z,5.17
2018-12-05T10:37:37.356Z,6.50
2018-12-05T10:40:07.022Z,5.30
2018-12-05T10:42:36.312Z,5.40
2018-12-05T10:45:06.130Z,5.70
2018-12-05T10:47:35.356Z,4.97
2018-12-05T10:50:04.968Z,7.45
2018-12-05T10:52:34.107Z,6.83
2018-12-05T10:55:03.158Z,6.40
2018-12-05T10:57:32.252Z,5.20
2018-12-05T11:00:01.505Z,6.42
2018-12-05T11:02:35.756Z,6.25
2018-12-05T11:05:10.290Z,5.50
2018-12-05T11:07:46.731Z,6.45
2018-12-05T11:10:21.034Z,5.22
2018-12-05T11:12:55.227Z,6.65
2018-12-05T11:15:29.714Z,5.40
2018-12-05T11:18:04.072Z,5.15
2018-12-05T11:20:38.215Z,4.58
2018-12-05T11:23:15.288Z,5.65
2018-12-05T11:25:44.728Z,4.80
2018-12-05T11:28:13.776Z,4.53
2018-12-05T11:30:42.893Z,4.92
2018-12-05T11:33:11.946Z,4.45
2018-12-05T11:35:41.011Z,5.37
2018-12-05T11:38:10.156Z,4.12
2018-12-05T11:40:39.269Z,5.60
2018-12-05T11:43:08.311Z,4.55
2018-12-05T11:45:37.633Z,4.42
2018-12-05T11:48:06.747Z,4.10
2018-12-05T11:50:35.951Z,4.53
2018-12-05T11:53:04.952Z,4.67
2018-12-05T11:55:34.089Z,4.17
2018-12-05T11:58:03.117Z,5.28
2018-12-05T12:00:32.137Z,5.25
2018-12-05T12:03:01.149Z,5.42
2018-12-05T12:05:30.198Z,4.35
2018-12-05T12:07:59.298Z,5.28
2018-12-05T12:10:33.552Z,5.45
2018-12-05T12:13:05.164Z,4.37
2018-12-05T12:15:34.380Z,4.40
2018-12-05T12:18:03.436Z,4.08
2018-12-05T12:20:32.483Z,3.65
2018-12-05T12:23:01.530Z,4.45
2018-12-05T12:25:31.363Z,4.70
2018-12-05T12:28:01.524Z,4.60
2018-12-05T12:30:30.644Z,4.75
2018-12-05T12:32:59.672Z,4.65
2018-12-05T12:35:28.737Z,4.10
2018-12-05T12:37:57.964Z,4.20
2018-12-05T12:40:26.969Z,4.20
2018-12-05T12:42:56.068Z,4.42
2018-12-05T12:45:25.192Z,4.80
2018-12-05T12:47:54.289Z,3.30
2018-12-05T12:50:23.335Z,4.35
2018-12-05T12:52:52.444Z,5.33
2018-12-05T12:55:21.538Z,3.40
2018-12-05T12:57:50.614Z,2.90
2018-12-05T13:00:19.717Z,3.45
2018-12-05T13:02:48.725Z,3.22
2018-12-05T13:05:17.883Z,3.60
2018-12-05T13:07:47.017Z,3.77
2018-12-05T13:10:16.011Z,5.35
2018-12-05T13:12:45.060Z,4.60
2018-12-05T13:15:14.222Z,2.98
2018-12-05T13:17:43.246Z,3.55
2018-12-05T13:20:12.353Z,4.92
2018-12-05T13:22:41.457Z,3.92
2018-12-05T13:25:10.568Z,3.37
2018-12-05T13:27:39.658Z,3.70
2018-12-05T13:30:08.968Z,4.95
2018-12-05T13:32:37.914Z,4.35
2018-12-05T13:35:07.086Z,4.47
2018-12-05T13:37:36.472Z,4.80
2018-12-05T13:40:06.249Z,3.85
2018-12-05T13:42:35.269Z,4.00
2018-12-05T13:45:04.773Z,5.10
2018-12-05T13:47:33.767Z,3.80
2018-12-05T13:50:02.771Z,5.12
2018-12-05T13:52:31.904Z,6.85
2018-12-05T13:55:01.049Z,5.70
2018-12-05T13:57:30.140Z,5.78
2018-12-05T13:59:59.460Z,5.67
2018-12-05T14:02:28.491Z,5.87
2018-12-05T14:04:57.602Z,5.60
2018-12-05T14:07:26.657Z,4.87
2018-12-05T14:09:55.723Z,5.60
2018-12-05T14:12:27.752Z,5.80
2018-12-05T14:14:56.798Z,6.03
2018-12-05T14:17:25.839Z,6.12
2018-12-05T14:19:54.977Z,5.83
2018-12-05T14:22:24.022Z,5.20
2018-12-05T14:24:53.240Z,6.00
2018-12-05T14:27:22.278Z,7.35
2018-12-05T14:29:51.252Z,6.83
2018-12-05T14:32:20.350Z,6.45
2018-12-05T14:34:49.362Z,8.08
2018-12-05T14:37:18.411Z,7.35
2018-12-05T14:39:47.463Z,7.67
2018-12-05T14:42:16.521Z,8.38
2018-12-05T14:44:45.468Z,7.35
2018-12-05T14:47:14.486Z,7.35
2018-12-05T14:49:43.524Z,7.67
2018-12-05T14:52:12.491Z,10.28
2018-12-05T14:54:41.459Z,7.45
2018-12-05T14:57:10.550Z,6.00
2018-12-05T14:59:39.511Z,7.92
2018-12-05T15:02:08.503Z,6.35
2018-12-05T15:04:37.628Z,7.00
2018-12-05T15:07:06.712Z,6.65
2018-12-05T15:09:35.700Z,8.50
2018-12-05T15:12:04.809Z,11.00
2018-12-05T15:14:33.956Z,9.45
2018-12-05T15:17:03.007Z,11.60
2018-12-05T15:19:32.001Z,14.58
2018-12-05T15:22:01.007Z,12.25
2018-12-05T15:24:29.954Z,11.95
2018-12-05T15:26:59.044Z,15.45
2018-12-05T15:29:28.197Z,17.87
2018-12-05T15:31:57.326Z,18.35
2018-12-05T15:34:26.485Z,19.70
2018-12-05T15:36:55.431Z,21.77
2018-12-05T15:39:24.588Z,22.55
2018-12-05T15:41:53.627Z,18.98
2018-12-05T15:44:22.680Z,20.30
2018-12-05T15:46:52.344Z,17.70
2018-12-05T15:49:21.623Z,17.52
2018-12-05T15:51:51.474Z,17.87
2018-12-05T15:54:20.507Z,18.95
2018-12-05T15:56:49.551Z,18.55
2018-12-05T15:59:18.534Z,17.82
2018-12-05T16:01:47.701Z,28.00
2018-12-05T16:04:16.953Z,24.43
2018-12-05T16:06:45.998Z,21.87
2018-12-05T16:09:14.984Z,21.00
2018-12-05T16:11:44.974Z,27.65
2018-12-05T16:14:13.966Z,27.13
2018-12-05T16:16:42.934Z,22.35
2018-12-05T16:19:11.933Z,21.80
2018-12-05T16:21:41.095Z,17.40
2018-12-05T16:24:10.123Z,17.85
2018-12-05T16:26:39.181Z,18.70
2018-12-05T16:29:08.338Z,18.35
2018-12-05T16:31:37.373Z,17.98
2018-12-05T16:34:06.650Z,20.50
2018-12-05T16:36:35.615Z,21.85
2018-12-05T16:39:07.602Z,21.75
2018-12-05T16:41:36.538Z,20.97
2018-12-05T16:44:12.683Z,21.07
2018-12-05T16:46:36.501Z,19.82
2018-12-05T16:49:05.453Z,17.52
2018-12-05T16:51:34.411Z,20.97
2018-12-05T16:54:03.404Z,23.98
2018-12-05T16:56:32.354Z,22.20
2018-12-05T16:59:01.373Z,24.75
2018-12-05T17:01:30.520Z,26.68
2018-12-05T17:03:59.437Z,32.40
2018-12-05T17:06:28.389Z,35.40
2018-12-05T17:08:57.649Z,39.35
2018-12-05T17:11:26.581Z,41.65
2018-12-05T17:13:55.485Z,37.90
2018-12-05T17:16:24.445Z,37.42
2018-12-05T17:18:53.365Z,37.70
2018-12-05T17:21:22.348Z,35.80
2018-12-05T17:23:51.354Z,30.27
2018-12-05T17:26:20.467Z,32.03
2018-12-05T17:28:49.474Z,47.70
2018-12-05T17:31:18.542Z,40.28
2018-12-05T17:33:47.547Z,26.85
2018-12-05T17:36:16.691Z,24.30
2018-12-05T17:38:46.674Z,24.35
2018-12-05T17:41:15.631Z,25.75
2018-12-05T17:43:44.752Z,28.87
2018-12-05T17:46:13.815Z,26.57
2018-12-05T17:48:42.800Z,30.92
2018-12-05T17:51:11.908Z,33.20
2018-12-05T17:53:40.906Z,36.03
2018-12-05T17:56:09.827Z,39.73
2018-12-05T17:58:38.793Z,41.05
2018-12-05T18:01:07.941Z,44.63
2018-12-05T18:03:37.010Z,45.80
2018-12-05T18:06:06.034Z,41.83
2018-12-05T18:08:35.106Z,45.40
2018-12-05T18:11:04.096Z,46.70
2018-12-05T18:13:33.116Z,45.90
2018-12-05T18:16:02.138Z,41.63
2018-12-05T18:18:31.105Z,44.95
2018-12-05T18:21:00.054Z,42.50
2018-12-05T18:23:29.080Z,48.35
2018-12-05T18:25:58.039Z,46.77
2018-12-05T18:28:27.024Z,46.08
2018-12-05T18:30:56.170Z,45.28
2018-12-05T18:33:25.177Z,47.20
2018-12-05T18:35:54.118Z,50.05
2018-12-05T18:38:23.155Z,56.30
2018-12-05T18:40:53.317Z,53.68
2018-12-05T18:43:22.334Z,53.02
2018-12-05T18:45:51.814Z,54.27
2018-12-05T18:48:20.790Z,50.58
2018-12-05T18:50:49.778Z,51.80
2018-12-05T18:53:18.910Z,50.83
2018-12-05T18:55:47.951Z,53.30
2018-12-05T18:58:17.805Z,52.93
2018-12-05T19:00:46.979Z,54.35
2018-12-05T19:03:16.091Z,53.98
2018-12-05T19:05:45.201Z,52.90
2018-12-05T19:08:14.820Z,53.52
2018-12-05T19:10:43.796Z,48.87
2018-12-05T19:13:13.100Z,53.13
2018-12-05T19:15:42.086Z,47.05
2018-12-05T19:18:11.161Z,45.65
2018-12-05T19:20:40.304Z,49.23
2018-12-05T19:23:09.409Z,51.90
2018-12-05T19:25:38.576Z,55.65
2018-12-05T19:28:07.746Z,55.40
2018-12-05T19:30:36.869Z,53.98
2018-12-05T19:33:06.112Z,54.48
2018-12-05T19:35:35.364Z,59.00
2018-12-05T19:38:04.442Z,57.17
2018-12-05T19:40:33.502Z,62.38
2018-12-05T19:43:02.510Z,67.37
2018-12-05T19:45:31.720Z,65.08
2018-12-05T19:48:00.873Z,72.95
2018-12-05T19:50:29.988Z,71.45
2018-12-05T19:52:59.227Z,70.45
2018-12-05T19:55:28.325Z,67.08
2018-12-05T19:57:57.327Z,78.60
2018-12-05T20:00:27.280Z,74.97
2018-12-05T20:02:56.340Z,77.20
2018-12-05T20:05:25.384Z,80.92
2018-12-05T20:07:54.519Z,80.62
2018-12-05T20:10:23.578Z,75.15
2018-12-05T20:12:52.628Z,71.65
2018-12-05T20:15:21.989Z,66.87
2018-12-05T20:17:51.105Z,72.35
2018-12-05T20:20:20.228Z,66.42
2018-12-05T20:22:49.341Z,63.45
2018-12-05T20:25:18.426Z,64.97
2018-12-05T20:27:47.536Z,67.42
2018-12-05T20:30:17.384Z,64.20
2018-12-05T20:32:46.480Z,63.58
2018-12-05T20:35:15.545Z,61.58
2018-12-05T20:37:44.803Z,61.10
2018-12-05T20:40:13.985Z,61.37
2018-12-05T20:42:43.627Z,57.33
2018-12-05T20:45:12.909Z,61.20
2018-12-05T20:47:42.668Z,62.45
2018-12-05T20:50:11.791Z,59.40
2018-12-05T20:52:40.900Z,56.95
2018-12-05T20:55:10.137Z,55.88
2018-12-05T20:57:39.338Z,56.88
2018-12-05T21:00:08.829Z,53.85
2018-12-05T21:02:37.981Z,56.65
2018-12-05T21:05:07.298Z,58.15
2018-12-05T21:07:36.393Z,59.83
2018-12-05T21:10:05.847Z,53.80
2018-12-05T21:12:35.433Z,50.73
2018-12-05T21:15:04.756Z,56.88
2018-12-05T21:17:33.887Z,51.80
2018-12-05T21:20:02.992Z,50.43
2018-12-05T21:22:32.153Z,51.73
2018-12-05T21:25:01.226Z,50.43
2018-12-05T21:27:30.298Z,53.83
2018-12-05T21:30:00.306Z,54.33
2018-12-05T21:32:29.682Z,51.85
2018-12-05T21:34:58.745Z,53.33
2018-12-05T21:37:27.911Z,55.17
2018-12-05T21:39:56.924Z,51.75
2018-12-05T21:42:26.223Z,58.35
2018-12-05T21:44:55.348Z,52.73
2018-12-05T21:47:24.396Z,55.55
2018-12-05T21:49:53.445Z,53.63
2018-12-05T21:52:22.554Z,53.65
2018-12-05T21:54:51.547Z,52.35
2018-12-05T21:57:20.609Z,50.85
2018-12-05T21:59:49.815Z,52.30
2018-12-05T22:02:18.955Z,54.75
2018-12-05T22:04:48.116Z,52.62
2018-12-05T22:07:17.278Z,56.60
2018-12-05T22:09:46.976Z,54.23
2018-12-05T22:12:16.101Z,49.00
2018-12-05T22:14:45.237Z,49.93
2018-12-05T22:17:14.310Z,51.20
2018-12-05T22:19:43.432Z,50.25
2018-12-05T22:22:12.567Z,50.03
2018-12-05T22:24:41.672Z,44.27
2018-12-05T22:27:10.884Z,46.37
2018-12-05T22:29:40.051Z,47.23
2018-12-05T22:32:09.093Z,46.40
2018-12-05T22:34:38.107Z,44.20
2018-12-05T22:37:07.295Z,46.60
2018-12-05T22:39:36.372Z,47.73
2018-12-05T22:42:05.405Z,48.20
2018-12-05T22:44:34.567Z,43.92
2018-12-05T22:47:03.642Z,44.05
2018-12-05T22:49:32.689Z,42.03
2018-12-05T22:52:01.772Z,38.58
2018-12-05T22:54:30.836Z,45.00
2018-12-05T22:57:13.297Z,38.65
2018-12-05T22:59:42.425Z,40.38
2018-12-05T23:02:11.573Z,42.43
2018-12-05T23:04:41.061Z,41.60
2018-12-05T23:07:10.148Z,42.53
2018-12-05T23:09:39.898Z,40.55
2018-12-05T23:12:09.641Z,39.50
2018-12-05T23:14:38.641Z,43.48
2018-12-05T23:17:07.780Z,37.33
2018-12-05T23:19:36.889Z,39.80
2018-12-05T23:22:05.984Z,39.60
2018-12-05T23:24:35.140Z,40.98
2018-12-05T23:27:04.531Z,40.55
2018-12-05T23:29:33.776Z,40.55
2018-12-05T23:32:04.214Z,39.75
2018-12-05T23:34:34.221Z,40.08
2018-12-05T23:37:05.701Z,36.90
2018-12-05T23:39:35.741Z,38.90
2018-12-05T23:42:05.542Z,39.08
2018-12-05T23:44:34.684Z,36.83
2018-12-05T23:47:03.780Z,34.58
2018-12-05T23:49:32.808Z,43.65
2018-12-05T23:52:01.869Z,37.33
2018-12-05T23:54:31.042Z,43.35
2018-12-05T23:57:00.083Z,41.18
2018-12-05T23:59:29.097Z,39.73
